sensor_id;sensor_type;location;lat;lon;timestamp;pressure;altitude;pressure_sealevel;temperature;humidity
71299;BME280;59083;47.974;21.722;2022-10-17T00:02:09;101840.09;;;9.63;99.22
71299;BME280;59083;47.974;21.722;2022-10-17T00:05:10;101845.00;;;9.58;99.15
71299;BME280;59083;47.974;21.722;2022-10-17T00:08:13;101838.44;;;9.52;99.21
71299;BME280;59083;47.974;21.722;2022-10-17T00:11:18;101850.37;;;9.48;99.22
71299;BME280;59083;47.974;21.722;2022-10-17T00:14:19;101841.97;;;9.43;99.41
71299;BME280;59083;47.974;21.722;2022-10-17T00:17:21;101843.53;;;9.36;99.57
71299;BME280;59083;47.974;21.722;2022-10-17T00:20:22;101842.16;;;9.32;99.59
71299;BME280;59083;47.974;21.722;2022-10-17T00:23:24;101841.72;;;9.36;99.70
71299;BME280;59083;47.974;21.722;2022-10-17T00:26:27;101838.34;;;9.34;100.00
71299;BME280;59083;47.974;21.722;2022-10-17T00:29:29;101850.41;;;9.38;100.00
71299;BME280;59083;47.974;21.722;2022-10-17T00:32:30;101847.56;;;9.40;99.86
71299;BME280;59083;47.974;21.722;2022-10-17T00:35:32;101847.03;;;9.36;99.99
71299;BME280;59083;47.974;21.722;2022-10-17T00:38:34;101844.94;;;9.30;99.60
71299;BME280;59083;47.974;21.722;2022-10-17T00:41:35;101856.28;;;9.32;99.83
71299;BME280;59083;47.974;21.722;2022-10-17T00:47:41;101852.91;;;9.30;99.96
71299;BME280;59083;47.974;21.722;2022-10-17T00:50:47;101852.38;;;9.27;100.00
71299;BME280;59083;47.974;21.722;2022-10-17T00:53:49;101853.22;;;9.27;100.00
71299;BME280;59083;47.974;21.722;2022-10-17T00:56:51;101859.53;;;9.26;100.00
71299;BME280;59083;47.974;21.722;2022-10-17T00:59:55;101846.66;;;9.22;100.00
71299;BME280;59083;47.974;21.722;2022-10-17T01:02:57;101850.16;;;9.22;99.89
71299;BME280;59083;47.974;21.722;2022-10-17T01:05:59;101856.03;;;9.16;99.85
71299;BME280;59083;47.974;21.722;2022-10-17T01:09:00;101859.69;;;9.15;100.00
71299;BME280;59083;47.974;21.722;2022-10-17T01:15:42;101851.56;;;9.07;99.77
71299;BME280;59083;47.974;21.722;2022-10-17T01:22:09;101850.44;;;9.00;98.97
71299;BME280;59083;47.974;21.722;2022-10-17T01:35:35;101842.91;;;8.86;99.68
71299;BME280;59083;47.974;21.722;2022-10-17T01:38:45;101856.19;;;8.86;99.63
71299;BME280;59083;47.974;21.722;2022-10-17T01:45:11;101847.66;;;8.92;99.23
71299;BME280;59083;47.974;21.722;2022-10-17T01:48:17;101863.87;;;8.89;99.56
71299;BME280;59083;47.974;21.722;2022-10-17T01:51:26;101855.88;;;8.89;99.60
71299;BME280;59083;47.974;21.722;2022-10-17T01:54:39;101860.78;;;8.84;99.57
71299;BME280;59083;47.974;21.722;2022-10-17T01:57:48;101854.09;;;8.80;99.25
71299;BME280;59083;47.974;21.722;2022-10-17T02:00:50;101866.66;;;8.78;99.40
71299;BME280;59083;47.974;21.722;2022-10-17T02:03:56;101859.12;;;8.83;99.60
71299;BME280;59083;47.974;21.722;2022-10-17T02:07:13;101855.78;;;8.81;99.70
71299;BME280;59083;47.974;21.722;2022-10-17T02:10:25;101857.16;;;8.75;99.54
71299;BME280;59083;47.974;21.722;2022-10-17T02:20:23;101863.75;;;8.81;99.24
71299;BME280;59083;47.974;21.722;2022-10-17T02:26:50;101878.13;;;8.68;99.48
71299;BME280;59083;47.974;21.722;2022-10-17T02:30:05;101879.97;;;8.68;99.17
71299;BME280;59083;47.974;21.722;2022-10-17T02:33:23;101888.34;;;8.63;99.30
71299;BME280;59083;47.974;21.722;2022-10-17T02:36:36;101880.09;;;8.57;99.23
71299;BME280;59083;47.974;21.722;2022-10-17T02:39:39;101889.88;;;8.56;99.05
71299;BME280;59083;47.974;21.722;2022-10-17T02:42:43;101884.56;;;8.56;99.27
71299;BME280;59083;47.974;21.722;2022-10-17T02:45:45;101886.50;;;8.54;99.31
71299;BME280;59083;47.974;21.722;2022-10-17T02:49:06;101885.94;;;8.41;99.75
71299;BME280;59083;47.974;21.722;2022-10-17T02:52:16;101890.97;;;8.44;99.92
71299;BME280;59083;47.974;21.722;2022-10-17T02:55:30;101887.87;;;8.49;100.00
71299;BME280;59083;47.974;21.722;2022-10-17T02:58:33;101888.47;;;8.52;99.97
71299;BME280;59083;47.974;21.722;2022-10-17T03:01:36;101889.44;;;8.51;100.00
71299;BME280;59083;47.974;21.722;2022-10-17T03:04:41;101899.78;;;8.54;100.00
71299;BME280;59083;47.974;21.722;2022-10-17T03:07:43;101893.25;;;8.58;100.00
71299;BME280;59083;47.974;21.722;2022-10-17T03:10:45;101898.37;;;8.50;100.00
71299;BME280;59083;47.974;21.722;2022-10-17T03:13:46;101901.03;;;8.50;100.00
71299;BME280;59083;47.974;21.722;2022-10-17T03:16:47;101900.19;;;8.50;100.00
71299;BME280;59083;47.974;21.722;2022-10-17T03:19:49;101898.37;;;8.50;100.00
71299;BME280;59083;47.974;21.722;2022-10-17T03:22:50;101903.00;;;8.48;100.00
71299;BME280;59083;47.974;21.722;2022-10-17T03:25:51;101898.78;;;8.46;100.00
71299;BME280;59083;47.974;21.722;2022-10-17T03:28:53;101899.34;;;8.49;100.00
71299;BME280;59083;47.974;21.722;2022-10-17T03:31:54;101904.41;;;8.52;100.00
71299;BME280;59083;47.974;21.722;2022-10-17T03:34:56;101901.22;;;8.58;100.00
71299;BME280;59083;47.974;21.722;2022-10-17T03:37:57;101903.03;;;8.67;100.00
71299;BME280;59083;47.974;21.722;2022-10-17T03:41:00;101899.69;;;8.75;100.00
71299;BME280;59083;47.974;21.722;2022-10-17T03:44:02;101905.84;;;8.76;100.00
71299;BME280;59083;47.974;21.722;2022-10-17T03:47:03;101904.16;;;8.75;100.00
71299;BME280;59083;47.974;21.722;2022-10-17T03:50:05;101917.87;;;8.80;100.00
71299;BME280;59083;47.974;21.722;2022-10-17T03:53:07;101916.47;;;8.76;100.00
71299;BME280;59083;47.974;21.722;2022-10-17T03:56:10;101919.41;;;8.73;100.00
71299;BME280;59083;47.974;21.722;2022-10-17T03:59:13;101926.28;;;8.75;100.00
71299;BME280;59083;47.974;21.722;2022-10-17T04:02:15;101923.75;;;8.74;100.00
71299;BME280;59083;47.974;21.722;2022-10-17T04:05:17;101931.41;;;8.57;100.00
71299;BME280;59083;47.974;21.722;2022-10-17T04:08:18;101926.81;;;8.59;100.00
71299;BME280;59083;47.974;21.722;2022-10-17T04:11:24;101926.53;;;8.62;100.00
71299;BME280;59083;47.974;21.722;2022-10-17T04:14:26;101926.81;;;8.59;100.00
71299;BME280;59083;47.974;21.722;2022-10-17T04:17:29;101933.78;;;8.60;100.00
71299;BME280;59083;47.974;21.722;2022-10-17T04:20:30;101919.38;;;8.53;100.00
71299;BME280;59083;47.974;21.722;2022-10-17T04:23:32;101938.22;;;8.50;100.00
71299;BME280;59083;47.974;21.722;2022-10-17T04:26:36;101934.87;;;8.48;100.00
71299;BME280;59083;47.974;21.722;2022-10-17T04:29:37;101936.00;;;8.55;100.00
71299;BME280;59083;47.974;21.722;2022-10-17T04:32:39;101937.25;;;8.51;100.00
71299;BME280;59083;47.974;21.722;2022-10-17T04:35:41;101936.00;;;8.46;100.00
71299;BME280;59083;47.974;21.722;2022-10-17T04:38:43;101931.53;;;8.46;100.00
71299;BME280;59083;47.974;21.722;2022-10-17T04:41:44;101936.53;;;8.49;100.00
71299;BME280;59083;47.974;21.722;2022-10-17T04:44:46;101940.59;;;8.44;100.00
71299;BME280;59083;47.974;21.722;2022-10-17T04:47:48;101941.72;;;8.41;100.00
71299;BME280;59083;47.974;21.722;2022-10-17T04:51:11;101940.16;;;8.39;100.00
71299;BME280;59083;47.974;21.722;2022-10-17T04:54:14;101944.31;;;8.32;100.00
71299;BME280;59083;47.974;21.722;2022-10-17T04:57:16;101941.81;;;8.30;100.00
71299;BME280;59083;47.974;21.722;2022-10-17T05:00:20;101951.91;;;8.36;100.00
71299;BME280;59083;47.974;21.722;2022-10-17T05:03:23;101947.97;;;8.31;100.00
71299;BME280;59083;47.974;21.722;2022-10-17T05:06:25;101954.12;;;8.31;100.00
71299;BME280;59083;47.974;21.722;2022-10-17T05:09:31;101949.25;;;8.36;100.00
71299;BME280;59083;47.974;21.722;2022-10-17T05:12:32;101958.34;;;8.43;100.00
71299;BME280;59083;47.974;21.722;2022-10-17T05:15:34;101961.47;;;8.48;100.00
71299;BME280;59083;47.974;21.722;2022-10-17T05:18:36;101961.72;;;8.55;100.00
71299;BME280;59083;47.974;21.722;2022-10-17T05:21:37;101964.28;;;8.66;100.00
71299;BME280;59083;47.974;21.722;2022-10-17T05:24:39;101972.97;;;8.68;100.00
71299;BME280;59083;47.974;21.722;2022-10-17T05:27:40;101963.91;;;8.80;100.00
71299;BME280;59083;47.974;21.722;2022-10-17T05:30:42;101973.16;;;8.86;100.00
71299;BME280;59083;47.974;21.722;2022-10-17T05:33:44;101977.22;;;8.90;100.00
71299;BME280;59083;47.974;21.722;2022-10-17T05:36:46;101987.72;;;9.01;100.00
71299;BME280;59083;47.974;21.722;2022-10-17T05:39:48;101984.97;;;9.50;99.47
71299;BME280;59083;47.974;21.722;2022-10-17T05:42:50;101997.19;;;10.83;94.37
71299;BME280;59083;47.974;21.722;2022-10-17T05:45:51;101993.94;;;11.95;88.14
71299;BME280;59083;47.974;21.722;2022-10-17T05:48:53;101996.50;;;12.73;84.18
71299;BME280;59083;47.974;21.722;2022-10-17T05:51:55;102009.22;;;13.21;79.97
71299;BME280;59083;47.974;21.722;2022-10-17T05:54:57;102010.72;;;13.32;78.59
71299;BME280;59083;47.974;21.722;2022-10-17T05:58:01;102018.62;;;12.49;80.32
71299;BME280;59083;47.974;21.722;2022-10-17T06:01:05;102026.66;;;11.97;82.82
71299;BME280;59083;47.974;21.722;2022-10-17T06:04:06;102039.25;;;11.52;84.07
71299;BME280;59083;47.974;21.722;2022-10-17T06:07:07;102045.66;;;11.24;85.88
71299;BME280;59083;47.974;21.722;2022-10-17T06:10:09;102042.94;;;11.06;86.97
71299;BME280;59083;47.974;21.722;2022-10-17T06:13:12;102053.63;;;11.06;86.64
71299;BME280;59083;47.974;21.722;2022-10-17T06:16:14;102041.31;;;10.95;87.11
71299;BME280;59083;47.974;21.722;2022-10-17T06:19:15;102062.31;;;11.08;86.93
71299;BME280;59083;47.974;21.722;2022-10-17T06:22:17;102060.34;;;11.10;86.24
71299;BME280;59083;47.974;21.722;2022-10-17T06:25:18;102062.22;;;11.27;85.81
71299;BME280;59083;47.974;21.722;2022-10-17T06:28:20;102065.91;;;11.44;85.51
71299;BME280;59083;47.974;21.722;2022-10-17T06:31:21;102064.34;;;11.41;85.58
71299;BME280;59083;47.974;21.722;2022-10-17T06:34:22;102076.94;;;11.49;85.44
71299;BME280;59083;47.974;21.722;2022-10-17T06:37:24;102071.66;;;11.39;85.65
71299;BME280;59083;47.974;21.722;2022-10-17T06:40:25;102083.41;;;11.46;85.85
71299;BME280;59083;47.974;21.722;2022-10-17T06:43:26;102083.22;;;11.75;85.19
71299;BME280;59083;47.974;21.722;2022-10-17T06:46:28;102089.66;;;11.82;85.27
71299;BME280;59083;47.974;21.722;2022-10-17T06:49:29;102089.09;;;11.96;85.01
71299;BME280;59083;47.974;21.722;2022-10-17T06:52:32;102093.91;;;12.11;84.24
71299;BME280;59083;47.974;21.722;2022-10-17T06:55:35;102098.91;;;12.14;84.46
71299;BME280;59083;47.974;21.722;2022-10-17T06:58:38;102105.66;;;12.18;84.39
71299;BME280;59083;47.974;21.722;2022-10-17T07:01:39;102106.91;;;12.31;84.32
71299;BME280;59083;47.974;21.722;2022-10-17T07:04:41;102107.09;;;12.30;84.28
71299;BME280;59083;47.974;21.722;2022-10-17T07:07:46;102108.81;;;12.39;84.40
71299;BME280;59083;47.974;21.722;2022-10-17T07:10:48;102113.19;;;12.48;84.91
71299;BME280;59083;47.974;21.722;2022-10-17T07:13:49;102116.50;;;12.42;84.77
71299;BME280;59083;47.974;21.722;2022-10-17T07:16:51;102113.53;;;12.45;85.49
71299;BME280;59083;47.974;21.722;2022-10-17T07:19:52;102120.22;;;12.49;85.92
71299;BME280;59083;47.974;21.722;2022-10-17T07:22:54;102123.59;;;12.51;86.30
71299;BME280;59083;47.974;21.722;2022-10-17T07:26:00;102118.69;;;12.64;86.21
71299;BME280;59083;47.974;21.722;2022-10-17T07:29:02;102127.34;;;12.66;86.72
71299;BME280;59083;47.974;21.722;2022-10-17T07:32:06;102127.72;;;12.71;86.75
71299;BME280;59083;47.974;21.722;2022-10-17T07:35:09;102128.09;;;12.76;86.84
71299;BME280;59083;47.974;21.722;2022-10-17T07:38:11;102130.47;;;12.88;85.54
71299;BME280;59083;47.974;21.722;2022-10-17T07:41:12;102128.84;;;12.95;85.15
71299;BME280;59083;47.974;21.722;2022-10-17T07:44:14;102114.00;;;13.00;84.94
71299;BME280;59083;47.974;21.722;2022-10-17T07:47:16;102121.47;;;13.14;84.89
71299;BME280;59083;47.974;21.722;2022-10-17T07:50:17;102125.00;;;13.23;84.51
71299;BME280;59083;47.974;21.722;2022-10-17T07:53:18;102130.22;;;13.33;84.14
71299;BME280;59083;47.974;21.722;2022-10-17T07:56:19;102128.22;;;13.35;84.20
71299;BME280;59083;47.974;21.722;2022-10-17T07:59:24;102130.59;;;13.46;83.96
71299;BME280;59083;47.974;21.722;2022-10-17T08:02:26;102130.81;;;13.60;83.71
71299;BME280;59083;47.974;21.722;2022-10-17T08:05:28;102118.06;;;13.54;83.72
71299;BME280;59083;47.974;21.722;2022-10-17T08:08:30;102123.44;;;13.62;84.00
71299;BME280;59083;47.974;21.722;2022-10-17T08:11:31;102118.59;;;13.74;83.87
71299;BME280;59083;47.974;21.722;2022-10-17T08:14:32;102126.13;;;13.79;84.21
71299;BME280;59083;47.974;21.722;2022-10-17T08:17:35;102121.28;;;13.82;84.09
71299;BME280;59083;47.974;21.722;2022-10-17T08:20:36;102127.81;;;13.96;83.86
71299;BME280;59083;47.974;21.722;2022-10-17T08:23:37;102118.47;;;14.00;83.65
71299;BME280;59083;47.974;21.722;2022-10-17T08:26:38;102127.66;;;14.14;83.67
71299;BME280;59083;47.974;21.722;2022-10-17T08:29:40;102130.53;;;14.28;82.93
71299;BME280;59083;47.974;21.722;2022-10-17T08:32:41;102132.38;;;14.44;82.36
71299;BME280;59083;47.974;21.722;2022-10-17T08:35:43;102130.88;;;14.50;82.06
71299;BME280;59083;47.974;21.722;2022-10-17T08:38:44;102122.81;;;14.58;81.69
71299;BME280;59083;47.974;21.722;2022-10-17T08:42:02;102125.13;;;14.69;80.58
71299;BME280;59083;47.974;21.722;2022-10-17T08:48:37;102126.41;;;14.89;80.47
71299;BME280;59083;47.974;21.722;2022-10-17T08:51:47;102128.37;;;15.03;78.26
71299;BME280;59083;47.974;21.722;2022-10-17T08:54:49;102122.56;;;15.22;77.80
71299;BME280;59083;47.974;21.722;2022-10-17T08:57:51;102128.91;;;15.38;76.54
71299;BME280;59083;47.974;21.722;2022-10-17T09:07:43;102129.22;;;15.74;75.57
71299;BME280;59083;47.974;21.722;2022-10-17T09:17:46;102139.06;;;16.27;68.54
71299;BME280;59083;47.974;21.722;2022-10-17T09:20:56;102136.59;;;16.40;70.14
71299;BME280;59083;47.974;21.722;2022-10-17T09:24:02;102132.78;;;16.49;68.72
71299;BME280;59083;47.974;21.722;2022-10-17T09:27:15;102140.72;;;16.65;67.78
71299;BME280;59083;47.974;21.722;2022-10-17T09:30:26;102132.47;;;16.81;67.54
71299;BME280;59083;47.974;21.722;2022-10-17T09:33:49;102129.44;;;16.84;67.62
71299;BME280;59083;47.974;21.722;2022-10-17T09:36:51;102129.81;;;16.96;66.94
71299;BME280;59083;47.974;21.722;2022-10-17T09:39:52;102138.25;;;17.08;66.71
71299;BME280;59083;47.974;21.722;2022-10-17T09:42:53;102135.56;;;17.08;65.85
71299;BME280;59083;47.974;21.722;2022-10-17T09:46:11;102133.94;;;17.28;64.70
71299;BME280;59083;47.974;21.722;2022-10-17T09:49:19;102134.47;;;17.38;63.77
71299;BME280;59083;47.974;21.722;2022-10-17T09:52:32;102131.25;;;17.28;61.80
71299;BME280;59083;47.974;21.722;2022-10-17T09:55:41;102133.72;;;17.44;61.04
71299;BME280;59083;47.974;21.722;2022-10-17T09:58:46;102124.78;;;17.58;62.00
71299;BME280;59083;47.974;21.722;2022-10-17T10:01:52;102130.28;;;17.65;62.60
71299;BME280;59083;47.974;21.722;2022-10-17T10:05:17;102121.34;;;17.86;62.73
71299;BME280;59083;47.974;21.722;2022-10-17T10:08:20;102124.69;;;17.88;61.40
71299;BME280;59083;47.974;21.722;2022-10-17T10:11:47;102125.97;;;17.92;61.66
71299;BME280;59083;47.974;21.722;2022-10-17T10:14:49;102125.56;;;17.95;60.00
71299;BME280;59083;47.974;21.722;2022-10-17T10:17:51;102100.78;;;18.06;61.40
71299;BME280;59083;47.974;21.722;2022-10-17T10:21:25;102116.31;;;18.25;60.87
71299;BME280;59083;47.974;21.722;2022-10-17T10:24:27;102115.41;;;18.39;59.85
71299;BME280;59083;47.974;21.722;2022-10-17T10:27:29;102112.78;;;18.25;58.93
71299;BME280;59083;47.974;21.722;2022-10-17T10:30:30;102104.31;;;18.28;59.25
71299;BME280;59083;47.974;21.722;2022-10-17T10:33:34;102112.19;;;18.29;60.26
71299;BME280;59083;47.974;21.722;2022-10-17T10:36:59;102114.81;;;18.44;60.00
71299;BME280;59083;47.974;21.722;2022-10-17T10:40:04;102106.19;;;18.55;59.35
71299;BME280;59083;47.974;21.722;2022-10-17T10:43:41;102113.44;;;18.54;58.43
71299;BME280;59083;47.974;21.722;2022-10-17T10:46:40;102115.97;;;18.56;55.83
71299;BME280;59083;47.974;21.722;2022-10-17T10:49:42;102112.44;;;18.55;57.05
71299;BME280;59083;47.974;21.722;2022-10-17T10:55:57;102100.41;;;18.65;56.68
71299;BME280;59083;47.974;21.722;2022-10-17T11:02:24;102080.87;;;18.63;56.78
71299;BME280;59083;47.974;21.722;2022-10-17T11:05:41;102093.00;;;18.73;54.56
71299;BME280;59083;47.974;21.722;2022-10-17T11:08:48;102094.28;;;18.77;55.68
71299;BME280;59083;47.974;21.722;2022-10-17T11:11:59;102088.03;;;18.77;55.89
71299;BME280;59083;47.974;21.722;2022-10-17T11:15:07;102090.09;;;18.75;56.42
71299;BME280;59083;47.974;21.722;2022-10-17T11:18:21;102093.84;;;18.74;55.29
71299;BME280;59083;47.974;21.722;2022-10-17T11:21:40;102087.56;;;18.67;56.33
71299;BME280;59083;47.974;21.722;2022-10-17T11:24:57;102085.88;;;18.66;56.40
71299;BME280;59083;47.974;21.722;2022-10-17T11:28:00;102084.63;;;18.68;56.71
71299;BME280;59083;47.974;21.722;2022-10-17T11:31:09;102086.34;;;18.76;55.31
71299;BME280;59083;47.974;21.722;2022-10-17T11:34:22;102076.53;;;18.68;53.18
71299;BME280;59083;47.974;21.722;2022-10-17T11:37:29;102075.09;;;18.66;53.43
71299;BME280;59083;47.974;21.722;2022-10-17T11:40:37;102072.62;;;18.71;54.29
71299;BME280;59083;47.974;21.722;2022-10-17T11:44:04;102066.84;;;18.74;55.03
71299;BME280;59083;47.974;21.722;2022-10-17T11:53:24;102068.97;;;18.91;54.07
71299;BME280;59083;47.974;21.722;2022-10-17T12:09:56;102056.81;;;18.68;54.74
71299;BME280;59083;47.974;21.722;2022-10-17T12:16:35;102054.75;;;18.70;54.15
71299;BME280;59083;47.974;21.722;2022-10-17T12:19:37;102053.31;;;18.74;54.11
71299;BME280;59083;47.974;21.722;2022-10-17T12:22:45;102057.91;;;18.73;53.01
71299;BME280;59083;47.974;21.722;2022-10-17T12:25:53;102051.84;;;18.71;53.71
71299;BME280;59083;47.974;21.722;2022-10-17T12:28:55;102042.91;;;18.71;54.03
71299;BME280;59083;47.974;21.722;2022-10-17T12:32:10;102047.47;;;18.70;54.38
71299;BME280;59083;47.974;21.722;2022-10-17T12:35:18;102043.31;;;18.68;54.16
71299;BME280;59083;47.974;21.722;2022-10-17T12:38:22;102038.31;;;18.65;54.08
71299;BME280;59083;47.974;21.722;2022-10-17T12:44:37;102038.19;;;18.79;53.51
71299;BME280;59083;47.974;21.722;2022-10-17T12:47:39;102036.06;;;18.75;53.43
71299;BME280;59083;47.974;21.722;2022-10-17T12:54:15;102036.47;;;18.72;52.80
71299;BME280;59083;47.974;21.722;2022-10-17T13:03:42;102028.16;;;18.67;53.78
71299;BME280;59083;47.974;21.722;2022-10-17T13:06:47;102029.81;;;18.68;53.90
71299;BME280;59083;47.974;21.722;2022-10-17T13:09:49;102030.00;;;18.66;54.30
71299;BME280;59083;47.974;21.722;2022-10-17T13:12:56;102022.28;;;18.63;54.60
71299;BME280;59083;47.974;21.722;2022-10-17T13:16:00;102020.66;;;18.69;53.92
71299;BME280;59083;47.974;21.722;2022-10-17T13:19:13;102021.25;;;18.64;54.26
71299;BME280;59083;47.974;21.722;2022-10-17T13:25:20;102017.31;;;18.60;54.20
71299;BME280;59083;47.974;21.722;2022-10-17T13:28:21;102023.13;;;18.64;54.37
71299;BME280;59083;47.974;21.722;2022-10-17T13:31:27;102015.81;;;18.57;53.94
71299;BME280;59083;47.974;21.722;2022-10-17T13:34:31;102013.97;;;18.58;53.54
71299;BME280;59083;47.974;21.722;2022-10-17T13:37:34;102016.59;;;18.51;54.46
71299;BME280;59083;47.974;21.722;2022-10-17T13:40:40;102018.81;;;18.41;54.93
71299;BME280;59083;47.974;21.722;2022-10-17T13:43:42;102022.53;;;18.40;55.23
71299;BME280;59083;47.974;21.722;2022-10-17T13:46:44;102015.50;;;18.39;54.58
71299;BME280;59083;47.974;21.722;2022-10-17T13:49:45;102013.03;;;18.44;54.57
71299;BME280;59083;47.974;21.722;2022-10-17T13:52:46;102014.69;;;18.45;54.68
71299;BME280;59083;47.974;21.722;2022-10-17T13:55:53;102013.22;;;18.43;54.63
71299;BME280;59083;47.974;21.722;2022-10-17T13:58:57;102010.56;;;18.49;54.33
71299;BME280;59083;47.974;21.722;2022-10-17T14:02:00;102013.88;;;18.51;54.29
71299;BME280;59083;47.974;21.722;2022-10-17T14:08:13;102005.56;;;18.46;53.99
71299;BME280;59083;47.974;21.722;2022-10-17T14:11:22;102010.94;;;18.46;54.12
71299;BME280;59083;47.974;21.722;2022-10-17T14:14:24;102007.62;;;18.44;54.22
71299;BME280;59083;47.974;21.722;2022-10-17T14:17:27;102007.13;;;18.34;54.75
71299;BME280;59083;47.974;21.722;2022-10-17T14:20:30;102001.72;;;18.28;55.26
71299;BME280;59083;47.974;21.722;2022-10-17T14:23:41;102005.41;;;18.20;55.86
71299;BME280;59083;47.974;21.722;2022-10-17T14:26:48;102002.66;;;18.13;56.01
71299;BME280;59083;47.974;21.722;2022-10-17T14:29:51;102000.56;;;18.09;56.37
71299;BME280;59083;47.974;21.722;2022-10-17T14:32:55;101999.06;;;18.06;56.46
71299;BME280;59083;47.974;21.722;2022-10-17T14:35:59;101996.97;;;18.02;56.82
71299;BME280;59083;47.974;21.722;2022-10-17T14:39:01;101999.84;;;17.94;57.16
71299;BME280;59083;47.974;21.722;2022-10-17T14:42:03;101998.53;;;17.90;57.04
71299;BME280;59083;47.974;21.722;2022-10-17T14:45:07;102000.75;;;17.80;57.71
71299;BME280;59083;47.974;21.722;2022-10-17T14:48:18;102006.91;;;17.73;58.29
71299;BME280;59083;47.974;21.722;2022-10-17T14:51:20;102000.00;;;17.64;58.69
71299;BME280;59083;47.974;21.722;2022-10-17T14:54:25;102001.41;;;17.60;58.69
71299;BME280;59083;47.974;21.722;2022-10-17T15:00:34;102001.88;;;17.49;59.40
71299;BME280;59083;47.974;21.722;2022-10-17T15:03:35;101994.31;;;17.38;60.14
71299;BME280;59083;47.974;21.722;2022-10-17T15:06:36;101998.19;;;17.29;61.14
71299;BME280;59083;47.974;21.722;2022-10-17T15:09:38;101998.28;;;17.21;62.05
71299;BME280;59083;47.974;21.722;2022-10-17T15:12:39;101999.81;;;17.09;62.40
71299;BME280;59083;47.974;21.722;2022-10-17T15:15:41;101999.28;;;16.99;63.16
71299;BME280;59083;47.974;21.722;2022-10-17T15:18:42;101991.25;;;16.84;64.47
71299;BME280;59083;47.974;21.722;2022-10-17T15:21:44;102005.66;;;16.76;64.93
71299;BME280;59083;47.974;21.722;2022-10-17T15:24:45;101998.06;;;16.65;66.00
71299;BME280;59083;47.974;21.722;2022-10-17T15:27:46;101994.50;;;16.50;67.24
71299;BME280;59083;47.974;21.722;2022-10-17T15:30:48;102006.37;;;16.41;68.48
71299;BME280;59083;47.974;21.722;2022-10-17T15:33:49;101998.75;;;16.30;68.91
71299;BME280;59083;47.974;21.722;2022-10-17T15:36:51;102001.47;;;16.15;69.94
71299;BME280;59083;47.974;21.722;2022-10-17T15:39:53;102007.75;;;16.07;71.32
71299;BME280;59083;47.974;21.722;2022-10-17T15:42:56;102002.66;;;15.98;72.33
71299;BME280;59083;47.974;21.722;2022-10-17T15:45:58;102010.97;;;15.88;73.33
71299;BME280;59083;47.974;21.722;2022-10-17T15:49:02;102013.91;;;15.79;74.84
71299;BME280;59083;47.974;21.722;2022-10-17T15:52:03;102017.22;;;15.66;nan
71299;BME280;59083;47.974;21.722;2022-10-17T15:55:07;102016.97;;;15.53;75.87
71299;BME280;59083;47.974;21.722;2022-10-17T15:58:13;102011.00;;;15.43;76.15
71299;BME280;59083;47.974;21.722;2022-10-17T16:01:25;102012.87;;;15.34;78.24
71299;BME280;59083;47.974;21.722;2022-10-17T16:04:27;102005.53;;;15.28;78.97
71299;BME280;59083;47.974;21.722;2022-10-17T16:07:30;102013.84;;;15.18;79.76
71299;BME280;59083;47.974;21.722;2022-10-17T16:10:31;102021.94;;;15.10;80.04
71299;BME280;59083;47.974;21.722;2022-10-17T16:13:33;102017.78;;;15.00;80.92
71299;BME280;59083;47.974;21.722;2022-10-17T16:16:35;102026.06;;;14.90;82.21
71299;BME280;59083;47.974;21.722;2022-10-17T16:19:36;102024.41;;;14.81;82.41
71299;BME280;59083;47.974;21.722;2022-10-17T16:22:38;102034.84;;;14.76;83.17
71299;BME280;59083;47.974;21.722;2022-10-17T16:25:41;102034.38;;;14.64;83.87
71299;BME280;59083;47.974;21.722;2022-10-17T16:28:43;102030.75;;;14.57;84.72
71299;BME280;59083;47.974;21.722;2022-10-17T16:31:44;102022.72;;;14.49;84.76
71299;BME280;59083;47.974;21.722;2022-10-17T16:34:45;102032.12;;;14.45;85.64
71299;BME280;59083;47.974;21.722;2022-10-17T16:37:47;102029.97;;;14.40;86.48
71299;BME280;59083;47.974;21.722;2022-10-17T16:40:48;102041.84;;;14.38;86.48
71299;BME280;59083;47.974;21.722;2022-10-17T16:43:51;102041.66;;;14.31;85.89
71299;BME280;59083;47.974;21.722;2022-10-17T16:46:53;102039.34;;;14.28;86.63
71299;BME280;59083;47.974;21.722;2022-10-17T16:49:54;102037.66;;;14.19;86.96
71299;BME280;59083;47.974;21.722;2022-10-17T16:52:55;102040.03;;;14.14;87.15
71299;BME280;59083;47.974;21.722;2022-10-17T16:56:01;102045.22;;;14.07;87.68
71299;BME280;59083;47.974;21.722;2022-10-17T16:59:03;102040.72;;;14.00;87.92
71299;BME280;59083;47.974;21.722;2022-10-17T17:02:04;102039.72;;;13.93;87.80
71299;BME280;59083;47.974;21.722;2022-10-17T17:05:06;102045.06;;;13.85;88.34
71299;BME280;59083;47.974;21.722;2022-10-17T17:08:07;102041.41;;;13.78;89.02
71299;BME280;59083;47.974;21.722;2022-10-17T17:11:10;102045.59;;;13.72;89.36
71299;BME280;59083;47.974;21.722;2022-10-17T17:14:12;102045.41;;;13.65;89.83
71299;BME280;59083;47.974;21.722;2022-10-17T17:17:13;102044.06;;;13.61;90.06
71299;BME280;59083;47.974;21.722;2022-10-17T17:20:14;102042.22;;;13.54;90.14
71299;BME280;59083;47.974;21.722;2022-10-17T17:23:16;102042.03;;;13.47;90.64
71299;BME280;59083;47.974;21.722;2022-10-17T17:26:20;102037.00;;;13.44;91.21
71299;BME280;59083;47.974;21.722;2022-10-17T17:29:22;102039.34;;;13.39;91.21
71299;BME280;59083;47.974;21.722;2022-10-17T17:32:24;102037.16;;;13.35;91.16
71299;BME280;59083;47.974;21.722;2022-10-17T17:35:27;102040.53;;;13.37;91.49